sensor_id;sensor_type;location;lat;lon;timestamp;temperature;humidity
34560;DHT22;20800;55.870;37.328;2022-10-04T00:09:33;10.70;99.90
34560;DHT22;20800;55.870;37.328;2022-10-04T00:12:02;10.70;99.90
34560;DHT22;20800;55.870;37.328;2022-10-04T00:14:35;10.80;99.90
34560;DHT22;20800;55.870;37.328;2022-10-04T00:17:10;10.80;99.90
34560;DHT22;20800;55.870;37.328;2022-10-04T00:19:38;10.80;99.90
34560;DHT22;20800;55.870;37.328;2022-10-04T00:24:35;10.70;99.90
34560;DHT22;20800;55.870;37.328;2022-10-04T00:27:24;10.70;99.90
34560;DHT22;20800;55.870;37.328;2022-10-04T00:38:14;10.50;99.90
34560;DHT22;20800;55.870;37.328;2022-10-04T00:40:47;10.50;99.90
34560;DHT22;20800;55.870;37.328;2022-10-04T00:43:21;10.50;99.90
34560;DHT22;20800;55.870;37.328;2022-10-04T00:45:53;10.40;99.90
34560;DHT22;20800;55.870;37.328;2022-10-04T00:51:07;10.50;99.90
34560;DHT22;20800;55.870;37.328;2022-10-04T00:53:37;10.60;99.90
34560;DHT22;20800;55.870;37.328;2022-10-04T00:56:10;10.50;99.90
34560;DHT22;20800;55.870;37.328;2022-10-04T01:01:25;10.30;99.90
34560;DHT22;20800;55.870;37.328;2022-10-04T01:03:54;10.40;99.90
34560;DHT22;20800;55.870;37.328;2022-10-04T01:06:22;10.40;99.90
34560;DHT22;20800;55.870;37.328;2022-10-04T01:09:01;10.50;99.90
34560;DHT22;20800;55.870;37.328;2022-10-04T01:11:33;10.40;99.90
34560;DHT22;20800;55.870;37.328;2022-10-04T01:14:07;10.50;99.90
34560;DHT22;20800;55.870;37.328;2022-10-04T01:16:36;10.50;99.90
34560;DHT22;20800;55.870;37.328;2022-10-04T01:19:35;10.50;99.90
34560;DHT22;20800;55.870;37.328;2022-10-04T01:24:40;10.40;99.90
34560;DHT22;20800;55.870;37.328;2022-10-04T01:27:46;10.30;99.90
34560;DHT22;20800;55.870;37.328;2022-10-04T01:30:14;10.40;99.90
34560;DHT22;20800;55.870;37.328;2022-10-04T01:32:41;10.30;99.90
34560;DHT22;20800;55.870;37.328;2022-10-04T01:35:09;10.30;99.90
34560;DHT22;20800;55.870;37.328;2022-10-04T01:37:37;10.20;99.90
34560;DHT22;20800;55.870;37.328;2022-10-04T01:40:06;10.10;99.90
34560;DHT22;20800;55.870;37.328;2022-10-04T01:42:48;10.20;99.90
34560;DHT22;20800;55.870;37.328;2022-10-04T01:45:33;10.30;99.90
34560;DHT22;20800;55.870;37.328;2022-10-04T01:48:04;10.40;99.90
34560;DHT22;20800;55.870;37.328;2022-10-04T01:50:34;10.40;99.90
34560;DHT22;20800;55.870;37.328;2022-10-04T01:53:12;10.30;99.90
34560;DHT22;20800;55.870;37.328;2022-10-04T01:55:41;10.30;99.90
34560;DHT22;20800;55.870;37.328;2022-10-04T01:58:13;10.20;99.90
34560;DHT22;20800;55.870;37.328;2022-10-04T02:01:10;10.10;99.90
34560;DHT22;20800;55.870;37.328;2022-10-04T02:03:39;10.00;99.90
34560;DHT22;20800;55.870;37.328;2022-10-04T02:06:08;10.00;99.90
34560;DHT22;20800;55.870;37.328;2022-10-04T02:08:38;9.90;99.90
34560;DHT22;20800;55.870;37.328;2022-10-04T02:11:06;10.00;99.90
34560;DHT22;20800;55.870;37.328;2022-10-04T02:13:37;10.00;99.90
34560;DHT22;20800;55.870;37.328;2022-10-04T02:16:08;10.00;99.90
34560;DHT22;20800;55.870;37.328;2022-10-04T02:18:37;10.00;99.90
34560;DHT22;20800;55.870;37.328;2022-10-04T02:21:06;9.90;99.90
34560;DHT22;20800;55.870;37.328;2022-10-04T02:23:34;9.90;99.90
34560;DHT22;20800;55.870;37.328;2022-10-04T02:26:06;9.90;99.90
34560;DHT22;20800;55.870;37.328;2022-10-04T02:28:33;9.90;99.90
34560;DHT22;20800;55.870;37.328;2022-10-04T02:30:59;10.00;99.90
34560;DHT22;20800;55.870;37.328;2022-10-04T02:33:47;9.90;99.90
34560;DHT22;20800;55.870;37.328;2022-10-04T02:36:14;9.80;99.90
34560;DHT22;20800;55.870;37.328;2022-10-04T02:43:56;9.70;99.90
34560;DHT22;20800;55.870;37.328;2022-10-04T02:49:09;9.80;99.90
34560;DHT22;20800;55.870;37.328;2022-10-04T02:51:46;9.80;99.90
34560;DHT22;20800;55.870;37.328;2022-10-04T02:56:53;9.80;99.90
34560;DHT22;20800;55.870;37.328;2022-10-04T02:59:20;9.80;99.90
34560;DHT22;20800;55.870;37.328;2022-10-04T03:01:57;9.80;99.90
34560;DHT22;20800;55.870;37.328;2022-10-04T03:04:28;9.80;99.90
34560;DHT22;20800;55.870;37.328;2022-10-04T03:06:57;9.90;99.90
34560;DHT22;20800;55.870;37.328;2022-10-04T03:09:24;9.90;99.90
34560;DHT22;20800;55.870;37.328;2022-10-04T03:11:51;9.80;99.90
34560;DHT22;20800;55.870;37.328;2022-10-04T03:14:22;9.80;99.90
34560;DHT22;20800;55.870;37.328;2022-10-04T03:16:52;9.90;99.90
34560;DHT22;20800;55.870;37.328;2022-10-04T03:19:21;9.80;99.90
34560;DHT22;20800;55.870;37.328;2022-10-04T03:21:50;9.80;99.90
34560;DHT22;20800;55.870;37.328;2022-10-04T03:24:20;9.90;99.90
34560;DHT22;20800;55.870;37.328;2022-10-04T03:26:54;9.90;99.90
34560;DHT22;20800;55.870;37.328;2022-10-04T03:29:23;9.80;99.90
34560;DHT22;20800;55.870;37.328;2022-10-04T03:31:54;9.80;99.90
34560;DHT22;20800;55.870;37.328;2022-10-04T03:34:24;9.80;99.90
34560;DHT22;20800;55.870;37.328;2022-10-04T03:36:52;9.90;99.90
34560;DHT22;20800;55.870;37.328;2022-10-04T03:41:56;9.80;99.90
34560;DHT22;20800;55.870;37.328;2022-10-04T03:44:23;9.70;99.90
34560;DHT22;20800;55.870;37.328;2022-10-04T03:46:50;9.60;99.90
34560;DHT22;20800;55.870;37.328;2022-10-04T03:49:22;9.60;99.90
34560;DHT22;20800;55.870;37.328;2022-10-04T03:51:51;9.50;99.90
34560;DHT22;20800;55.870;37.328;2022-10-04T03:54:21;9.50;99.90
34560;DHT22;20800;55.870;37.328;2022-10-04T03:56:50;9.50;99.90
34560;DHT22;20800;55.870;37.328;2022-10-04T03:59:17;9.60;99.90
34560;DHT22;20800;55.870;37.328;2022-10-04T04:04:46;9.70;99.90
34560;DHT22;20800;55.870;37.328;2022-10-04T04:07:36;9.70;99.90
34560;DHT22;20800;55.870;37.328;2022-10-04T04:10:33;9.70;99.90
34560;DHT22;20800;55.870;37.328;2022-10-04T04:15:32;9.90;99.90
34560;DHT22;20800;55.870;37.328;2022-10-04T04:18:04;9.90;99.90
34560;DHT22;20800;55.870;37.328;2022-10-04T04:20:36;9.90;99.90
34560;DHT22;20800;55.870;37.328;2022-10-04T04:23:17;9.90;99.90
34560;DHT22;20800;55.870;37.328;2022-10-04T04:25:52;10.00;99.90
34560;DHT22;20800;55.870;37.328;2022-10-04T04:28:38;9.90;99.90
34560;DHT22;20800;55.870;37.328;2022-10-04T04:36:29;10.00;99.90
34560;DHT22;20800;55.870;37.328;2022-10-04T04:39:20;10.00;99.90
34560;DHT22;20800;55.870;37.328;2022-10-04T04:42:04;10.00;99.90
34560;DHT22;20800;55.870;37.328;2022-10-04T04:44:30;10.20;99.90
34560;DHT22;20800;55.870;37.328;2022-10-04T04:46:58;10.30;99.90
34560;DHT22;20800;55.870;37.328;2022-10-04T04:49:27;10.30;99.90
34560;DHT22;20800;55.870;37.328;2022-10-04T04:51:56;10.30;99.90
34560;DHT22;20800;55.870;37.328;2022-10-04T04:54:24;10.50;99.90
34560;DHT22;20800;55.870;37.328;2022-10-04T04:56:53;10.40;99.90
34560;DHT22;20800;55.870;37.328;2022-10-04T04:59:21;10.50;99.90
34560;DHT22;20800;55.870;37.328;2022-10-04T05:01:48;10.40;99.90
34560;DHT22;20800;55.870;37.328;2022-10-04T05:04:18;10.50;99.90
34560;DHT22;20800;55.870;37.328;2022-10-04T05:06:46;10.70;99.90
34560;DHT22;20800;55.870;37.328;2022-10-04T05:09:33;10.80;99.90
34560;DHT22;20800;55.870;37.328;2022-10-04T05:12:29;10.80;99.90
34560;DHT22;20800;55.870;37.328;2022-10-04T05:14:56;11.00;99.90
34560;DHT22;20800;55.870;37.328;2022-10-04T05:17:25;11.00;99.90
34560;DHT22;20800;55.870;37.328;2022-10-04T05:19:56;11.00;99.90
34560;DHT22;20800;55.870;37.328;2022-10-04T05:22:24;11.00;99.90
34560;DHT22;20800;55.870;37.328;2022-10-04T05:24:54;11.00;99.90
34560;DHT22;20800;55.870;37.328;2022-10-04T05:27:29;11.30;99.90
34560;DHT22;20800;55.870;37.328;2022-10-04T05:29:59;11.40;99.90
34560;DHT22;20800;55.870;37.328;2022-10-04T05:35:18;11.30;99.90
34560;DHT22;20800;55.870;37.328;2022-10-04T05:40:44;11.30;99.90
34560;DHT22;20800;55.870;37.328;2022-10-04T05:43:44;11.30;99.90
34560;DHT22;20800;55.870;37.328;2022-10-04T05:46:20;11.30;99.90
34560;DHT22;20800;55.870;37.328;2022-10-04T05:48:53;11.30;99.90
34560;DHT22;20800;55.870;37.328;2022-10-04T05:53:50;11.30;99.90
34560;DHT22;20800;55.870;37.328;2022-10-04T05:56:34;11.30;99.90
34560;DHT22;20800;55.870;37.328;2022-10-04T06:04:30;11.50;99.90
34560;DHT22;20800;55.870;37.328;2022-10-04T06:12:35;11.60;99.90
34560;DHT22;20800;55.870;37.328;2022-10-04T06:23:52;11.30;99.90
34560;DHT22;20800;55.870;37.328;2022-10-04T06:26:21;11.20;99.90
34560;DHT22;20800;55.870;37.328;2022-10-04T06:29:04;11.20;99.90
34560;DHT22;20800;55.870;37.328;2022-10-04T06:37:31;11.10;99.90
34560;DHT22;20800;55.870;37.328;2022-10-04T06:40:36;11.10;99.90
34560;DHT22;20800;55.870;37.328;2022-10-04T06:45:52;11.20;99.90
34560;DHT22;20800;55.870;37.328;2022-10-04T06:59:34;11.50;99.90
34560;DHT22;20800;55.870;37.328;2022-10-04T07:02:32;11.50;99.90
34560;DHT22;20800;55.870;37.328;2022-10-04T07:05:17;11.70;99.90
34560;DHT22;20800;55.870;37.328;2022-10-04T07:07:49;11.80;99.90
34560;DHT22;20800;55.870;37.328;2022-10-04T07:10:49;11.90;99.90
34560;DHT22;20800;55.870;37.328;2022-10-04T07:16:02;12.20;99.90
34560;DHT22;20800;55.870;37.328;2022-10-04T07:18:35;12.30;99.90
34560;DHT22;20800;55.870;37.328;2022-10-04T07:21:08;12.20;99.90
34560;DHT22;20800;55.870;37.328;2022-10-04T07:23:59;12.00;99.90
34560;DHT22;20800;55.870;37.328;2022-10-04T07:26:48;12.00;99.90
34560;DHT22;20800;55.870;37.328;2022-10-04T07:29:22;12.10;99.90
34560;DHT22;20800;55.870;37.328;2022-10-04T07:32:10;12.30;99.90
34560;DHT22;20800;55.870;37.328;2022-10-04T07:34:47;12.40;99.90
34560;DHT22;20800;55.870;37.328;2022-10-04T07:37:15;12.20;99.90
34560;DHT22;20800;55.870;37.328;2022-10-04T07:39:46;12.20;99.90
34560;DHT22;20800;55.870;37.328;2022-10-04T07:47:31;11.90;99.90
34560;DHT22;20800;55.870;37.328;2022-10-04T07:49:57;11.90;99.90
34560;DHT22;20800;55.870;37.328;2022-10-04T07:52:49;11.90;99.90
34560;DHT22;20800;55.870;37.328;2022-10-04T08:03:09;12.60;99.90
34560;DHT22;20800;55.870;37.328;2022-10-04T08:05:50;13.00;98.80
34560;DHT22;20800;55.870;37.328;2022-10-04T08:11:29;13.30;95.60
34560;DHT22;20800;55.870;37.328;2022-10-04T08:14:16;13.30;95.60
34560;DHT22;20800;55.870;37.328;2022-10-04T08:16:53;13.30;97.20
34560;DHT22;20800;55.870;37.328;2022-10-04T08:19:51;13.50;93.40
34560;DHT22;20800;55.870;37.328;2022-10-04T08:28:16;13.60;93.10
34560;DHT22;20800;55.870;37.328;2022-10-04T08:31:06;13.80;95.80
34560;DHT22;20800;55.870;37.328;2022-10-04T08:33:47;13.80;90.20
34560;DHT22;20800;55.870;37.328;2022-10-04T08:39:02;13.40;93.90
34560;DHT22;20800;55.870;37.328;2022-10-04T08:41:40;13.20;91.00
34560;DHT22;20800;55.870;37.328;2022-10-04T08:52:50;12.80;94.40
34560;DHT22;20800;55.870;37.328;2022-10-04T09:12:43;14.40;88.10
34560;DHT22;20800;55.870;37.328;2022-10-04T09:15:39;14.50;80.60
34560;DHT22;20800;55.870;37.328;2022-10-04T09:21:10;13.60;84.60
34560;DHT22;20800;55.870;37.328;2022-10-04T09:29:40;14.10;79.10
34560;DHT22;20800;55.870;37.328;2022-10-04T09:32:34;14.20;78.50
34560;DHT22;20800;55.870;37.328;2022-10-04T09:35:24;14.00;73.50
34560;DHT22;20800;55.870;37.328;2022-10-04T09:57:44;13.40;85.10
34560;DHT22;20800;55.870;37.328;2022-10-04T10:00:19;13.40;85.20
34560;DHT22;20800;55.870;37.328;2022-10-04T10:06:13;13.30;78.60
34560;DHT22;20800;55.870;37.328;2022-10-04T10:09:29;13.40;78.50
34560;DHT22;20800;55.870;37.328;2022-10-04T10:17:54;13.30;88.30
34560;DHT22;20800;55.870;37.328;2022-10-04T10:31:53;12.40;99.90
34560;DHT22;20800;55.870;37.328;2022-10-04T10:48:33;11.10;99.90
34560;DHT22;20800;55.870;37.328;2022-10-04T10:51:12;10.90;99.90
34560;DHT22;20800;55.870;37.328;2022-10-04T11:07:56;10.00;99.90
34560;DHT22;20800;55.870;37.328;2022-10-04T11:28:04;9.90;99.90
34560;DHT22;20800;55.870;37.328;2022-10-04T11:55:40;10.40;99.90
34560;DHT22;20800;55.870;37.328;2022-10-04T11:59:02;10.40;99.90
34560;DHT22;20800;55.870;37.328;2022-10-04T12:04:29;9.90;99.90
34560;DHT22;20800;55.870;37.328;2022-10-04T12:10:41;9.90;99.90
34560;DHT22;20800;55.870;37.328;2022-10-04T12:13:25;10.10;99.90
34560;DHT22;20800;55.870;37.328;2022-10-04T12:22:56;10.60;99.90
34560;DHT22;20800;55.870;37.328;2022-10-04T12:31:32;10.60;99.90
34560;DHT22;20800;55.870;37.328;2022-10-04T12:37:02;10.30;99.90
34560;DHT22;20800;55.870;37.328;2022-10-04T12:39:52;10.20;99.90
34560;DHT22;20800;55.870;37.328;2022-10-04T12:48:25;10.40;99.90
34560;DHT22;20800;55.870;37.328;2022-10-04T12:56:44;10.60;99.90
34560;DHT22;20800;55.870;37.328;2022-10-04T12:59:41;10.50;99.90
34560;DHT22;20800;55.870;37.328;2022-10-04T13:02:27;10.50;99.90
34560;DHT22;20800;55.870;37.328;2022-10-04T13:05:11;10.30;99.90
34560;DHT22;20800;55.870;37.328;2022-10-04T13:08:00;10.20;99.90
34560;DHT22;20800;55.870;37.328;2022-10-04T13:28:21;10.10;99.90
34560;DHT22;20800;55.870;37.328;2022-10-04T13:34:22;10.20;99.90
34560;DHT22;20800;55.870;37.328;2022-10-04T13:51:20;9.90;99.90
34560;DHT22;20800;55.870;37.328;2022-10-04T13:54:41;9.90;99.90
34560;DHT22;20800;55.870;37.328;2022-10-04T13:57:23;9.80;99.90
34560;DHT22;20800;55.870;37.328;2022-10-04T14:00:10;9.90;99.90
34560;DHT22;20800;55.870;37.328;2022-10-04T14:13:54;9.80;99.90
34560;DHT22;20800;55.870;37.328;2022-10-04T14:22:32;9.80;99.90
34560;DHT22;20800;55.870;37.328;2022-10-04T14:39:17;9.50;99.90
34560;DHT22;20800;55.870;37.328;2022-10-04T14:42:16;9.50;99.90
34560;DHT22;20800;55.870;37.328;2022-10-04T14:50:26;9.50;99.90
34560;DHT22;20800;55.870;37.328;2022-10-04T14:53:18;9.40;99.90
34560;DHT22;20800;55.870;37.328;2022-10-04T14:58:32;9.50;99.90
34560;DHT22;20800;55.870;37.328;2022-10-04T15:01:21;9.50;99.90
34560;DHT22;20800;55.870;37.328;2022-10-04T15:10:21;9.40;99.90
34560;DHT22;20800;55.870;37.328;2022-10-04T15:13:02;9.30;99.90
34560;DHT22;20800;55.870;37.328;2022-10-04T15:21:37;9.20;99.90
34560;DHT22;20800;55.870;37.328;2022-10-04T15:24:26;9.20;99.90
34560;DHT22;20800;55.870;37.328;2022-10-04T15:29:50;9.20;99.90
34560;DHT22;20800;55.870;37.328;2022-10-04T15:34:57;9.10;99.90
34560;DHT22;20800;55.870;37.328;2022-10-04T15:37:42;9.20;99.90
34560;DHT22;20800;55.870;37.328;2022-10-04T16:06:22;8.60;99.90
34560;DHT22;20800;55.870;37.328;2022-10-04T16:11:35;8.70;99.90
34560;DHT22;20800;55.870;37.328;2022-10-04T16:22:30;8.80;99.90
34560;DHT22;20800;55.870;37.328;2022-10-04T16:30:30;8.90;99.90
34560;DHT22;20800;55.870;37.328;2022-10-04T16:33:36;8.90;99.90
34560;DHT22;20800;55.870;37.328;2022-10-04T16:36:17;8.90;99.90
34560;DHT22;20800;55.870;37.328;2022-10-04T16:38:47;9.10;99.90
34560;DHT22;20800;55.870;37.328;2022-10-04T16:41:40;9.10;99.90
34560;DHT22;20800;55.870;37.328;2022-10-04T16:44:35;9.20;99.90
34560;DHT22;20800;55.870;37.328;2022-10-04T16:50:03;9.30;99.90
34560;DHT22;20800;55.870;37.328;2022-10-04T16:53:14;9.20;99.90
34560;DHT22;20800;55.870;37.328;2022-10-04T16:55:52;9.30;99.90
34560;DHT22;20800;55.870;37.328;2022-10-04T17:04:15;9.30;99.90
34560;DHT22;20800;55.870;37.328;2022-10-04T17:12:50;9.50;99.90
34560;DHT22;20800;55.870;37.328;2022-10-04T17:15:32;9.50;99.90
34560;DHT22;20800;55.870;37.328;2022-10-04T17:18:17;9.60;99.90
34560;DHT22;20800;55.870;37.328;2022-10-04T17:26:13;9.70;99.90
34560;DHT22;20800;55.870;37.328;2022-10-04T17:28:55;9.70;99.90
34560;DHT22;20800;55.870;37.328;2022-10-04T17:31:43;9.90;99.90
34560;DHT22;20800;55.870;37.328;2022-10-04T17:36:53;9.80;99.90
34560;DHT22;20800;55.870;37.328;2022-10-04T17:44:16;9.80;99.90
34560;DHT22;20800;55.870;37.328;2022-10-04T17:50:09;9.70;99.90
34560;DHT22;20800;55.870;37.328;2022-10-04T17:52:59;9.70;99.90
34560;DHT22;20800;55.870;37.328;2022-10-04T17:55:57;9.60;99.90
34560;DHT22;20800;55.870;37.328;2022-10-04T17:58:43;9.50;99.90
34560;DHT22;20800;55.870;37.328;2022-10-04T18:03:55;9.40;99.90
34560;DHT22;20800;55.870;37.328;2022-10-04T18:06:28;9.40;99.90
34560;DHT22;20800;55.870;37.328;2022-10-04T18:17:04;9.30;99.90
34560;DHT22;20800;55.870;37.328;2022-10-04T18:22:17;9.30;99.90
34560;DHT22;20800;55.870;37.328;2022-10-04T18:24:45;9.20;99.90
34560;DHT22;20800;55.870;37.328;2022-10-04T18:27:22;9.20;99.90
34560;DHT22;20800;55.870;37.328;2022-10-04T18:30:14;9.10;99.90
34560;DHT22;20800;55.870;37.328;2022-10-04T18:32:47;9.10;99.90
34560;DHT22;20800;55.870;37.328;2022-10-04T18:35:19;9.00;99.90
34560;DHT22;20800;55.870;37.328;2022-10-04T18:40:26;8.60;99.90
34560;DHT22;20800;55.870;37.328;2022-10-04T18:42:58;8.40;99.90
34560;DHT22;20800;55.870;37.328;2022-10-04T18:45:31;8.10;99.90
34560;DHT22;20800;55.870;37.328;2022-10-04T18:48:13;7.90;99.90
34560;DHT22;20800;55.870;37.328;2022-10-04T18:50:41;7.90;99.90
34560;DHT22;20800;55.870;37.328;2022-10-04T18:56:13;7.90;99.90
34560;DHT22;20800;55.870;37.328;2022-10-04T18:59:00;8.00;99.90
34560;DHT22;20800;55.870;37.328;2022-10-04T19:05:19;8.10;99.90
34560;DHT22;20800;55.870;37.328;2022-10-04T19:10:28;8.20;99.90
34560;DHT22;20800;55.870;37.328;2022-10-04T19:13:07;8.20;99.90
34560;DHT22;20800;55.870;37.328;2022-10-04T19:15:50;8.40;99.90
34560;DHT22;20800;55.870;37.328;2022-10-04T19:21:23;8.00;99.90
34560;DHT22;20800;55.870;37.328;2022-10-04T19:26:46;7.60;99.90
34560;DHT22;20800;55.870;37.328;2022-10-04T19:32:01;7.40;99.90
34560;DHT22;20800;55.870;37.328;2022-10-04T19:34:52;7.20;99.90
34560;DHT22;20800;55.870;37.328;2022-10-04T19:37:39;7.20;99.90
34560;DHT22;20800;55.870;37.328;2022-10-04T19:40:14;7.10;99.90
34560;DHT22;20800;55.870;37.328;2022-10-04T19:42:53;7.20;99.90
34560;DHT22;20800;55.870;37.328;2022-10-04T19:48:18;7.10;99.90
34560;DHT22;20800;55.870;37.328;2022-10-04T19:51:12;7.20;99.90
34560;DHT22;20800;55.870;37.328;2022-10-04T19:53:42;7.30;99.90
34560;DHT22;20800;55.870;37.328;2022-10-04T19:56:22;7.40;99.90
34560;DHT22;20800;55.870;37.328;2022-10-04T19:59:00;7.40;99.90
34560;DHT22;20800;55.870;37.328;2022-10-04T20:01:29;7.30;99.90
34560;DHT22;20800;55.870;37.328;2022-10-04T20:03:55;7.30;99.90
34560;DHT22;20800;55.870;37.328;2022-10-04T20:06:54;7.30;99.90
34560;DHT22;20800;55.870;37.328;2022-10-04T20:17:43;7.40;99.90
34560;DHT22;20800;55.870;37.328;2022-10-04T20:22:59;7.60;99.90
34560;DHT22;20800;55.870;37.328;2022-10-04T20:31:03;7.70;99.90
34560;DHT22;20800;55.870;37.328;2022-10-04T20:39:01;7.70;99.90
34560;DHT22;20800;55.870;37.328;2022-10-04T20:43:58;7.80;99.90
34560;DHT22;20800;55.870;37.328;2022-10-04T20:46:30;7.80;99.90
34560;DHT22;20800;55.870;37.328;2022-10-04T20:48:57;7.80;99.90
34560;DHT22;20800;55.870;37.328;2022-10-04T20:51:25;7.80;99.90
34560;DHT22;20800;55.870;37.328;2022-10-04T20:53:54;7.70;99.90
34560;DHT22;20800;55.870;37.328;2022-10-04T20:58:51;7.60;99.90
34560;DHT22;20800;55.870;37.328;2022-10-04T21:01:24;7.60;99.90
34560;DHT22;20800;55.870;37.328;2022-10-04T21:09:25;7.60;99.90
34560;DHT22;20800;55.870;37.328;2022-10-04T21:11:54;7.60;99.90
34560;DHT22;20800;55.870;37.328;2022-10-04T21:16:54;7.70;99.90
34560;DHT22;20800;55.870;37.328;2022-10-04T21:22:06;7.70;99.90
34560;DHT22;20800;55.870;37.328;2022-10-04T21:27:35;7.70;99.90
34560;DHT22;20800;55.870;37.328;2022-10-04T21:30:12;7.70;99.90
34560;DHT22;20800;55.870;37.328;2022-10-04T21:32:38;7.70;99.90
34560;DHT22;20800;55.870;37.328;2022-10-04T21:35:05;7.70;99.90
34560;DHT22;20800;55.870;37.328;2022-10-04T21:37:32;7.70;99.90
34560;DHT22;20800;55.870;37.328;2022-10-04T21:39:58;7.70;99.90
34560;DHT22;20800;55.870;37.328;2022-10-04T21:42:24;7.70;99.90
34560;DHT22;20800;55.870;37.328;2022-10-04T21:44:51;7.70;99.90
34560;DHT22;20800;55.870;37.328;2022-10-04T21:47:17;7.70;99.90
34560;DHT22;20800;55.870;37.328;2022-10-04T21:49:47;7.70;99.90
34560;DHT22;20800;55.870;37.328;2022-10-04T21:52:13;7.70;99.90
34560;DHT22;20800;55.870;37.328;2022-10-04T21:54:39;7.60;99.90
34560;DHT22;20800;55.870;37.328;2022-10-04T21:57:05;7.60;99.90
34560;DHT22;20800;55.870;37.328;2022-10-04T21:59:31;7.50;99.90
34560;DHT22;20800;55.870;37.328;2022-10-04T22:01:56;7.50;99.90
34560;DHT22;20800;55.870;37.328;2022-10-04T22:04:22;7.50;99.90
34560;DHT22;20800;55.870;37.328;2022-10-04T22:06:48;7.50;99.90
34560;DHT22;20800;55.870;37.328;2022-10-04T22:09:14;7.50;99.90
34560;DHT22;20800;55.870;37.328;2022-10-04T22:11:40;7.50;99.90
34560;DHT22;20800;55.870;37.328;2022-10-04T22:14:06;7.50;99.90
34560;DHT22;20800;55.870;37.328;2022-10-04T22:16:32;7.50;99.90
34560;DHT22;20800;55.870;37.328;2022-10-04T22:18:58;7.50;99.90
34560;DHT22;20800;55.870;37.328;2022-10-04T22:21:24;7.60;99.90
34560;DHT22;20800;55.870;37.328;2022-10-04T22:23:50;7.60;99.90
34560;DHT22;20800;55.870;37.328;2022-10-04T22:26:18;7.50;99.90
34560;DHT22;20800;55.870;37.328;2022-10-04T22:28:54;7.50;99.90
34560;DHT22;20800;55.870;37.328;2022-10-04T22:31:27;7.60;99.90
34560;DHT22;20800;55.870;37.328;2022-10-04T22:33:54;7.60;99.90
34560;DHT22;20800;55.870;37.328;2022-10-04T22:36:21;7.50;99.90
34560;DHT22;20800;55.870;37.328;2022-10-04T22:38:55;7.50;99.90
34560;DHT22;20800;55.870;37.328;2022-10-04T22:41:35;7.50;99.90
34560;DHT22;20800;55.870;37.328;2022-10-04T22:44:22;7.50;99.90
34560;DHT22;20800;55.870;37.328;2022-10-04T22:46:51;7.50;99.90
34560;DHT22;20800;55.870;37.328;2022-10-04T22:49:30;7.60;99.90
34560;DHT22;20800;55.870;37.328;2022-10-04T22:51:58;7.60;99.90
34560;DHT22;20800;55.870;37.328;2022-10-04T22:54:29;7.50;99.90
34560;DHT22;20800;55.870;37.328;2022-10-04T22:56:56;7.50;99.90
34560;DHT22;20800;55.870;37.328;2022-10-04T22:59:31;7.50;99.90
34560;DHT22;20800;55.870;37.328;2022-10-04T23:01:59;7.50;99.90
34560;DHT22;20800;55.870;37.328;2022-10-04T23:04:30;7.40;99.90
34560;DHT22;20800;55.870;37.328;2022-10-04T23:06:56;7.50;99.90
34560;DHT22;20800;55.870;37.328;2022-10-04T23:09:22;7.70;99.90
34560;DHT22;20800;55.870;37.328;2022-10-04T23:11:47;7.60;99.90
34560;DHT22;20800;55.870;37.328;2022-10-04T23:14:13;7.60;99.90
34560;DHT22;20800;55.870;37.328;2022-10-04T23:16:39;7.60;99.90
34560;DHT22;20800;55.870;37.328;2022-10-04T23:19:15;7.50;99.90
34560;DHT22;20800;55.870;37.328;2022-10-04T23:21:48;7.50;99.90
34560;DHT22;20800;55.870;37.328;2022-10-04T23:24:16;7.40;99.90
34560;DHT22;20800;55.870;37.328;2022-10-04T23:26:45;7.50;99.90
34560;DHT22;20800;55.870;37.328;2022-10-04T23:29:25;7.50;99.90
34560;DHT22;20800;55.870;37.328;2022-10-04T23:31:52;7.60;99.90
34560;DHT22;20800;55.870;37.328;2022-10-04T23:34:26;7.60;99.90
34560;DHT22;20800;55.870;37.328;2022-10-04T23:36:53;7.60;99.90
34560;DHT22;20800;55.870;37.328;2022-10-04T23:39:27;7.60;99.90
34560;DHT22;20800;55.870;37.328;2022-10-04T23:41:56;7.60;99.90
34560;DHT22;20800;55.870;37.328;2022-10-04T23:44:27;7.60;99.90
34560;DHT22;20800;55.870;37.328;2022-10-04T23:46:55;7.60;99.90
34560;DHT22;20800;55.870;37.328;2022-10-04T23:49:22;7.60;99.90
34560;DHT22;20800;55.870;37.328;2022-10-04T23:51:53;7.50;99.90
34560;DHT22;20800;55.870;37.328;2022-10-04T23:54:21;7.50;99.90
34560;DHT22;20800;55.870;37.328;2022-10-04T23:56:47;7.50;99.90
34560;DHT22;20800;55.870;37.328;2022-10-04T23:59:18;7.50;99.90
